sensor_id;sensor_type;location;lat;lon;timestamp;temperature;humidity
5278;DHT22;2662;51.194;6.614;2023-01-20T00:00:06;2.50;99.90
5278;DHT22;2662;51.194;6.614;2023-01-20T00:02:32;2.50;99.90
5278;DHT22;2662;51.194;6.614;2023-01-20T00:04:59;2.60;99.90
5278;DHT22;2662;51.194;6.614;2023-01-20T00:07:26;2.50;99.90
5278;DHT22;2662;51.194;6.614;2023-01-20T00:09:54;2.50;99.90
5278;DHT22;2662;51.194;6.614;2023-01-20T00:12:21;2.50;99.90
5278;DHT22;2662;51.194;6.614;2023-01-20T00:14:47;2.40;99.90
5278;DHT22;2662;51.194;6.614;2023-01-20T00:17:14;2.40;99.90
5278;DHT22;2662;51.194;6.614;2023-01-20T00:19:41;2.40;99.90
5278;DHT22;2662;51.194;6.614;2023-01-20T00:22:07;2.50;99.90
5278;DHT22;2662;51.194;6.614;2023-01-20T00:24:34;2.50;99.90
5278;DHT22;2662;51.194;6.614;2023-01-20T00:27:02;2.60;99.90
5278;DHT22;2662;51.194;6.614;2023-01-20T00:29:29;2.60;99.90
5278;DHT22;2662;51.194;6.614;2023-01-20T00:31:55;2.70;99.90
5278;DHT22;2662;51.194;6.614;2023-01-20T00:34:22;2.60;99.90
5278;DHT22;2662;51.194;6.614;2023-01-20T00:36:49;2.50;99.90
5278;DHT22;2662;51.194;6.614;2023-01-20T00:39:15;2.60;99.90
5278;DHT22;2662;51.194;6.614;2023-01-20T00:41:42;2.60;99.90
5278;DHT22;2662;51.194;6.614;2023-01-20T00:44:10;2.70;99.90
5278;DHT22;2662;51.194;6.614;2023-01-20T00:46:37;2.70;99.90
5278;DHT22;2662;51.194;6.614;2023-01-20T00:49:03;2.70;99.90
5278;DHT22;2662;51.194;6.614;2023-01-20T00:51:30;2.80;99.90
5278;DHT22;2662;51.194;6.614;2023-01-20T00:53:57;2.80;99.90
5278;DHT22;2662;51.194;6.614;2023-01-20T00:56:24;2.80;99.90
5278;DHT22;2662;51.194;6.614;2023-01-20T00:58:50;2.70;99.90
5278;DHT22;2662;51.194;6.614;2023-01-20T01:01:20;2.60;99.90
5278;DHT22;2662;51.194;6.614;2023-01-20T01:03:47;2.60;99.90
5278;DHT22;2662;51.194;6.614;2023-01-20T01:06:16;2.60;99.90
5278;DHT22;2662;51.194;6.614;2023-01-20T01:08:43;2.60;99.90
5278;DHT22;2662;51.194;6.614;2023-01-20T01:11:11;2.70;99.90
5278;DHT22;2662;51.194;6.614;2023-01-20T01:13:38;2.80;99.90
5278;DHT22;2662;51.194;6.614;2023-01-20T01:16:09;2.90;99.90
5278;DHT22;2662;51.194;6.614;2023-01-20T01:18:38;3.00;99.90
5278;DHT22;2662;51.194;6.614;2023-01-20T01:21:07;3.00;99.90
5278;DHT22;2662;51.194;6.614;2023-01-20T01:23:33;2.90;99.90
5278;DHT22;2662;51.194;6.614;2023-01-20T01:26:00;3.00;99.90
5278;DHT22;2662;51.194;6.614;2023-01-20T01:28:27;3.00;99.90
5278;DHT22;2662;51.194;6.614;2023-01-20T01:30:54;3.10;99.90
5278;DHT22;2662;51.194;6.614;2023-01-20T01:33:20;3.10;99.90
5278;DHT22;2662;51.194;6.614;2023-01-20T01:35:55;3.10;99.90
5278;DHT22;2662;51.194;6.614;2023-01-20T01:38:22;3.10;99.90
5278;DHT22;2662;51.194;6.614;2023-01-20T01:40:49;3.00;99.90
5278;DHT22;2662;51.194;6.614;2023-01-20T01:43:21;3.00;99.90
5278;DHT22;2662;51.194;6.614;2023-01-20T01:45:49;3.00;99.90
5278;DHT22;2662;51.194;6.614;2023-01-20T01:48:16;3.00;99.90
5278;DHT22;2662;51.194;6.614;2023-01-20T01:50:48;2.90;99.90
5278;DHT22;2662;51.194;6.614;2023-01-20T01:53:18;2.90;99.90
5278;DHT22;2662;51.194;6.614;2023-01-20T01:55:48;2.90;99.90
5278;DHT22;2662;51.194;6.614;2023-01-20T01:58:17;3.00;99.90
5278;DHT22;2662;51.194;6.614;2023-01-20T02:00:47;3.00;99.90
5278;DHT22;2662;51.194;6.614;2023-01-20T02:03:14;3.00;99.90
5278;DHT22;2662;51.194;6.614;2023-01-20T02:05:41;3.10;99.90
5278;DHT22;2662;51.194;6.614;2023-01-20T02:08:09;3.10;99.90
5278;DHT22;2662;51.194;6.614;2023-01-20T02:10:37;3.10;99.90
5278;DHT22;2662;51.194;6.614;2023-01-20T02:13:04;3.10;99.90
5278;DHT22;2662;51.194;6.614;2023-01-20T02:15:35;3.10;99.90
5278;DHT22;2662;51.194;6.614;2023-01-20T02:18:23;3.10;99.90
5278;DHT22;2662;51.194;6.614;2023-01-20T02:21:17;3.10;99.90
5278;DHT22;2662;51.194;6.614;2023-01-20T02:24:20;3.00;99.90
5278;DHT22;2662;51.194;6.614;2023-01-20T02:26:59;2.90;99.90
5278;DHT22;2662;51.194;6.614;2023-01-20T02:29:46;3.00;99.90
5278;DHT22;2662;51.194;6.614;2023-01-20T02:32:36;2.90;99.90
5278;DHT22;2662;51.194;6.614;2023-01-20T02:35:09;3.00;99.90
5278;DHT22;2662;51.194;6.614;2023-01-20T02:37:45;3.10;99.90
5278;DHT22;2662;51.194;6.614;2023-01-20T02:40:20;3.10;99.90
5278;DHT22;2662;51.194;6.614;2023-01-20T02:42:56;3.10;99.90
5278;DHT22;2662;51.194;6.614;2023-01-20T02:45:30;3.10;99.90
5278;DHT22;2662;51.194;6.614;2023-01-20T02:48:04;3.20;99.90
5278;DHT22;2662;51.194;6.614;2023-01-20T02:50:37;3.20;99.90
5278;DHT22;2662;51.194;6.614;2023-01-20T02:53:06;3.20;99.90
5278;DHT22;2662;51.194;6.614;2023-01-20T02:55:37;3.20;99.90
5278;DHT22;2662;51.194;6.614;2023-01-20T02:58:07;3.20;99.90
5278;DHT22;2662;51.194;6.614;2023-01-20T03:00:38;3.20;99.90
5278;DHT22;2662;51.194;6.614;2023-01-20T03:03:10;3.20;99.90
5278;DHT22;2662;51.194;6.614;2023-01-20T03:05:41;3.30;99.90
5278;DHT22;2662;51.194;6.614;2023-01-20T03:08:12;3.30;99.90
5278;DHT22;2662;51.194;6.614;2023-01-20T03:10:41;3.20;99.90
5278;DHT22;2662;51.194;6.614;2023-01-20T03:13:11;3.30;99.90
5278;DHT22;2662;51.194;6.614;2023-01-20T03:15:46;3.30;99.90
5278;DHT22;2662;51.194;6.614;2023-01-20T03:18:17;3.20;99.90
5278;DHT22;2662;51.194;6.614;2023-01-20T03:20:44;3.30;99.90
5278;DHT22;2662;51.194;6.614;2023-01-20T03:23:11;3.20;99.90
5278;DHT22;2662;51.194;6.614;2023-01-20T03:25:38;3.20;99.90
5278;DHT22;2662;51.194;6.614;2023-01-20T03:28:05;3.10;99.90
5278;DHT22;2662;51.194;6.614;2023-01-20T03:30:32;3.00;99.90
5278;DHT22;2662;51.194;6.614;2023-01-20T03:32:59;2.90;99.90
5278;DHT22;2662;51.194;6.614;2023-01-20T03:35:28;2.80;99.90
5278;DHT22;2662;51.194;6.614;2023-01-20T03:37:55;2.80;99.90
5278;DHT22;2662;51.194;6.614;2023-01-20T03:40:24;2.80;99.90
5278;DHT22;2662;51.194;6.614;2023-01-20T03:42:58;2.80;99.90
5278;DHT22;2662;51.194;6.614;2023-01-20T03:45:33;2.80;99.90
5278;DHT22;2662;51.194;6.614;2023-01-20T03:48:07;2.80;99.90
5278;DHT22;2662;51.194;6.614;2023-01-20T03:50:41;2.80;99.90
5278;DHT22;2662;51.194;6.614;2023-01-20T03:53:17;2.80;99.90
5278;DHT22;2662;51.194;6.614;2023-01-20T03:55:52;2.80;99.90
5278;DHT22;2662;51.194;6.614;2023-01-20T03:58:25;2.80;99.90
5278;DHT22;2662;51.194;6.614;2023-01-20T04:00:53;2.70;99.90
5278;DHT22;2662;51.194;6.614;2023-01-20T04:03:25;2.60;99.90
5278;DHT22;2662;51.194;6.614;2023-01-20T04:05:55;2.50;99.90
5278;DHT22;2662;51.194;6.614;2023-01-20T04:08:28;2.40;99.90
5278;DHT22;2662;51.194;6.614;2023-01-20T04:10:57;2.30;99.90
5278;DHT22;2662;51.194;6.614;2023-01-20T04:13:25;2.20;99.90
5278;DHT22;2662;51.194;6.614;2023-01-20T04:15:51;2.20;99.90
5278;DHT22;2662;51.194;6.614;2023-01-20T04:18:20;2.00;99.90
5278;DHT22;2662;51.194;6.614;2023-01-20T04:20:50;1.90;99.90
5278;DHT22;2662;51.194;6.614;2023-01-20T04:23:23;1.80;99.90
5278;DHT22;2662;51.194;6.614;2023-01-20T04:25:50;1.80;99.90
5278;DHT22;2662;51.194;6.614;2023-01-20T04:28:17;1.70;99.90
5278;DHT22;2662;51.194;6.614;2023-01-20T04:30:43;1.60;99.90
5278;DHT22;2662;51.194;6.614;2023-01-20T04:33:10;1.60;99.90
5278;DHT22;2662;51.194;6.614;2023-01-20T04:35:37;1.60;99.90
5278;DHT22;2662;51.194;6.614;2023-01-20T04:38:03;1.50;99.90
5278;DHT22;2662;51.194;6.614;2023-01-20T04:40:32;1.50;99.90
5278;DHT22;2662;51.194;6.614;2023-01-20T04:42:58;1.50;99.90
5278;DHT22;2662;51.194;6.614;2023-01-20T04:45:25;1.60;99.90
5278;DHT22;2662;51.194;6.614;2023-01-20T04:47:52;1.70;99.90
5278;DHT22;2662;51.194;6.614;2023-01-20T04:50:19;1.70;99.90
5278;DHT22;2662;51.194;6.614;2023-01-20T04:52:45;1.80;99.90
5278;DHT22;2662;51.194;6.614;2023-01-20T04:55:12;1.90;99.90
5278;DHT22;2662;51.194;6.614;2023-01-20T04:57:40;2.00;99.90
5278;DHT22;2662;51.194;6.614;2023-01-20T05:00:08;2.10;99.90
5278;DHT22;2662;51.194;6.614;2023-01-20T05:02:36;2.20;99.90
5278;DHT22;2662;51.194;6.614;2023-01-20T05:05:03;2.30;99.90
5278;DHT22;2662;51.194;6.614;2023-01-20T05:07:29;2.50;99.90
5278;DHT22;2662;51.194;6.614;2023-01-20T05:09:56;2.50;99.90
5278;DHT22;2662;51.194;6.614;2023-01-20T05:12:23;2.60;99.90
5278;DHT22;2662;51.194;6.614;2023-01-20T05:14:51;2.70;99.90
5278;DHT22;2662;51.194;6.614;2023-01-20T05:17:17;2.80;99.90
5278;DHT22;2662;51.194;6.614;2023-01-20T05:19:44;2.80;99.90
5278;DHT22;2662;51.194;6.614;2023-01-20T05:22:11;2.90;99.90
5278;DHT22;2662;51.194;6.614;2023-01-20T05:24:37;2.90;99.90
5278;DHT22;2662;51.194;6.614;2023-01-20T05:27:04;3.00;99.90
5278;DHT22;2662;51.194;6.614;2023-01-20T05:29:31;3.00;99.90
5278;DHT22;2662;51.194;6.614;2023-01-20T05:31:59;3.10;99.90
5278;DHT22;2662;51.194;6.614;2023-01-20T05:34:26;3.10;99.90
5278;DHT22;2662;51.194;6.614;2023-01-20T05:36:53;3.10;99.90
5278;DHT22;2662;51.194;6.614;2023-01-20T05:39:20;3.20;99.90
5278;DHT22;2662;51.194;6.614;2023-01-20T05:41:47;3.20;99.90
5278;DHT22;2662;51.194;6.614;2023-01-20T05:44:14;3.20;99.90
5278;DHT22;2662;51.194;6.614;2023-01-20T05:46:41;3.20;99.90
5278;DHT22;2662;51.194;6.614;2023-01-20T05:49:10;3.20;99.90
5278;DHT22;2662;51.194;6.614;2023-01-20T05:51:37;3.20;99.90
5278;DHT22;2662;51.194;6.614;2023-01-20T05:54:04;3.20;99.90
5278;DHT22;2662;51.194;6.614;2023-01-20T05:56:31;3.30;99.90
5278;DHT22;2662;51.194;6.614;2023-01-20T05:58:57;3.30;99.90
5278;DHT22;2662;51.194;6.614;2023-01-20T06:01:24;3.30;99.90
5278;DHT22;2662;51.194;6.614;2023-01-20T06:03:51;3.30;99.90
5278;DHT22;2662;51.194;6.614;2023-01-20T06:06:19;3.40;99.90
5278;DHT22;2662;51.194;6.614;2023-01-20T06:08:46;3.40;99.90
5278;DHT22;2662;51.194;6.614;2023-01-20T06:11:14;3.40;99.90
5278;DHT22;2662;51.194;6.614;2023-01-20T06:13:42;3.40;99.90
5278;DHT22;2662;51.194;6.614;2023-01-20T06:16:09;3.40;99.90
5278;DHT22;2662;51.194;6.614;2023-01-20T06:18:35;3.40;99.90
5278;DHT22;2662;51.194;6.614;2023-01-20T06:21:02;3.50;99.90
5278;DHT22;2662;51.194;6.614;2023-01-20T06:23:30;3.50;99.90
5278;DHT22;2662;51.194;6.614;2023-01-20T06:25:58;3.50;99.90
5278;DHT22;2662;51.194;6.614;2023-01-20T06:28:26;3.40;99.90
5278;DHT22;2662;51.194;6.614;2023-01-20T06:30:58;3.50;99.90
5278;DHT22;2662;51.194;6.614;2023-01-20T06:33:25;3.40;99.90
5278;DHT22;2662;51.194;6.614;2023-01-20T06:35:53;3.40;99.90
5278;DHT22;2662;51.194;6.614;2023-01-20T06:38:19;3.40;99.90
5278;DHT22;2662;51.194;6.614;2023-01-20T06:40:47;3.40;99.90
5278;DHT22;2662;51.194;6.614;2023-01-20T06:43:14;3.40;99.90
5278;DHT22;2662;51.194;6.614;2023-01-20T06:45:41;3.30;99.90
5278;DHT22;2662;51.194;6.614;2023-01-20T06:48:08;3.30;99.90
5278;DHT22;2662;51.194;6.614;2023-01-20T06:50:34;3.30;99.90
5278;DHT22;2662;51.194;6.614;2023-01-20T06:53:01;3.30;99.90
5278;DHT22;2662;51.194;6.614;2023-01-20T06:55:28;3.30;99.90
5278;DHT22;2662;51.194;6.614;2023-01-20T06:57:56;3.30;99.90
5278;DHT22;2662;51.194;6.614;2023-01-20T07:00:23;3.30;99.90
5278;DHT22;2662;51.194;6.614;2023-01-20T07:02:50;3.30;99.90
5278;DHT22;2662;51.194;6.614;2023-01-20T07:05:16;3.20;99.90
5278;DHT22;2662;51.194;6.614;2023-01-20T07:07:43;3.20;99.90
5278;DHT22;2662;51.194;6.614;2023-01-20T07:10:11;3.20;99.90
5278;DHT22;2662;51.194;6.614;2023-01-20T07:12:37;3.10;99.90
5278;DHT22;2662;51.194;6.614;2023-01-20T07:15:06;3.10;99.90
5278;DHT22;2662;51.194;6.614;2023-01-20T07:17:33;3.10;99.90
5278;DHT22;2662;51.194;6.614;2023-01-20T07:20:00;3.20;99.90
5278;DHT22;2662;51.194;6.614;2023-01-20T07:22:27;3.20;99.90
5278;DHT22;2662;51.194;6.614;2023-01-20T07:24:53;3.20;99.90
5278;DHT22;2662;51.194;6.614;2023-01-20T07:27:20;3.20;99.90
5278;DHT22;2662;51.194;6.614;2023-01-20T07:29:47;3.20;99.90
5278;DHT22;2662;51.194;6.614;2023-01-20T07:32:15;3.20;99.90
5278;DHT22;2662;51.194;6.614;2023-01-20T07:34:41;3.30;99.90
5278;DHT22;2662;51.194;6.614;2023-01-20T07:37:08;3.30;99.90
5278;DHT22;2662;51.194;6.614;2023-01-20T07:39:35;3.40;99.90
5278;DHT22;2662;51.194;6.614;2023-01-20T07:42:02;3.40;99.90
5278;DHT22;2662;51.194;6.614;2023-01-20T07:44:29;3.40;99.90
5278;DHT22;2662;51.194;6.614;2023-01-20T07:46:56;3.50;99.90
5278;DHT22;2662;51.194;6.614;2023-01-20T07:49:24;3.40;99.90
5278;DHT22;2662;51.194;6.614;2023-01-20T07:51:51;3.50;99.90
5278;DHT22;2662;51.194;6.614;2023-01-20T07:54:18;3.50;99.90
5278;DHT22;2662;51.194;6.614;2023-01-20T07:56:44;3.50;99.90
5278;DHT22;2662;51.194;6.614;2023-01-20T07:59:11;3.50;99.90
5278;DHT22;2662;51.194;6.614;2023-01-20T08:01:38;3.60;99.90
5278;DHT22;2662;51.194;6.614;2023-01-20T08:04:05;3.60;99.90
5278;DHT22;2662;51.194;6.614;2023-01-20T08:06:33;3.60;99.90
5278;DHT22;2662;51.194;6.614;2023-01-20T08:09:00;3.60;99.90
5278;DHT22;2662;51.194;6.614;2023-01-20T08:11:27;3.70;99.90
5278;DHT22;2662;51.194;6.614;2023-01-20T08:13:57;3.60;99.90
5278;DHT22;2662;51.194;6.614;2023-01-20T08:16:24;3.60;99.90
5278;DHT22;2662;51.194;6.614;2023-01-20T08:18:52;3.60;99.90
5278;DHT22;2662;51.194;6.614;2023-01-20T08:21:20;3.70;99.90
5278;DHT22;2662;51.194;6.614;2023-01-20T08:23:49;3.70;99.90
5278;DHT22;2662;51.194;6.614;2023-01-20T08:26:16;3.80;99.90
5278;DHT22;2662;51.194;6.614;2023-01-20T08:28:43;3.80;99.90
5278;DHT22;2662;51.194;6.614;2023-01-20T08:31:12;3.90;99.90
5278;DHT22;2662;51.194;6.614;2023-01-20T08:33:39;4.00;99.90
5278;DHT22;2662;51.194;6.614;2023-01-20T08:36:09;4.00;99.90
5278;DHT22;2662;51.194;6.614;2023-01-20T08:38:36;4.10;99.90
5278;DHT22;2662;51.194;6.614;2023-01-20T08:41:07;4.00;99.90
5278;DHT22;2662;51.194;6.614;2023-01-20T08:43:34;4.10;99.90
5278;DHT22;2662;51.194;6.614;2023-01-20T08:46:03;4.20;99.90
5278;DHT22;2662;51.194;6.614;2023-01-20T08:48:31;4.30;99.90
5278;DHT22;2662;51.194;6.614;2023-01-20T08:50:58;4.30;99.90
5278;DHT22;2662;51.194;6.614;2023-01-20T08:53:25;4.40;99.90
5278;DHT22;2662;51.194;6.614;2023-01-20T08:55:55;4.30;99.90
5278;DHT22;2662;51.194;6.614;2023-01-20T08:58:24;4.20;99.90
5278;DHT22;2662;51.194;6.614;2023-01-20T09:00:52;4.20;99.90
5278;DHT22;2662;51.194;6.614;2023-01-20T09:03:19;4.10;99.90
5278;DHT22;2662;51.194;6.614;2023-01-20T09:05:46;4.20;99.90
5278;DHT22;2662;51.194;6.614;2023-01-20T09:08:13;4.20;99.90
5278;DHT22;2662;51.194;6.614;2023-01-20T09:10:40;4.20;99.90
5278;DHT22;2662;51.194;6.614;2023-01-20T09:13:06;4.20;99.90
5278;DHT22;2662;51.194;6.614;2023-01-20T09:15:34;4.30;99.90
5278;DHT22;2662;51.194;6.614;2023-01-20T09:18:01;4.40;99.90
5278;DHT22;2662;51.194;6.614;2023-01-20T09:20:28;4.40;99.90
5278;DHT22;2662;51.194;6.614;2023-01-20T09:22:55;4.40;99.90
5278;DHT22;2662;51.194;6.614;2023-01-20T09:25:21;4.60;99.90
5278;DHT22;2662;51.194;6.614;2023-01-20T09:27:48;4.80;99.90
5278;DHT22;2662;51.194;6.614;2023-01-20T09:30:15;4.80;99.90
5278;DHT22;2662;51.194;6.614;2023-01-20T09:32:43;4.90;99.90
5278;DHT22;2662;51.194;6.614;2023-01-20T09:35:10;4.90;99.90
5278;DHT22;2662;51.194;6.614;2023-01-20T09:37:37;4.90;99.90
5278;DHT22;2662;51.194;6.614;2023-01-20T09:40:23;4.90;99.90
5278;DHT22;2662;51.194;6.614;2023-01-20T09:43:19;5.10;99.90
5278;DHT22;2662;51.194;6.614;2023-01-20T09:46:11;5.20;99.90
5278;DHT22;2662;51.194;6.614;2023-01-20T09:48:47;5.20;99.90
5278;DHT22;2662;51.194;6.614;2023-01-20T09:51:40;5.10;99.90
5278;DHT22;2662;51.194;6.614;2023-01-20T09:54:35;5.10;99.90
5278;DHT22;2662;51.194;6.614;2023-01-20T09:57:05;5.10;99.90
5278;DHT22;2662;51.194;6.614;2023-01-20T09:59:36;5.00;99.90
5278;DHT22;2662;51.194;6.614;2023-01-20T10:02:12;5.00;99.90
5278;DHT22;2662;51.194;6.614;2023-01-20T10:04:45;5.00;99.90
5278;DHT22;2662;51.194;6.614;2023-01-20T10:07:21;5.00;99.90
5278;DHT22;2662;51.194;6.614;2023-01-20T10:09:52;4.90;99.90
5278;DHT22;2662;51.194;6.614;2023-01-20T10:12:26;5.00;99.90
5278;DHT22;2662;51.194;6.614;2023-01-20T10:14:59;4.90;99.90
5278;DHT22;2662;51.194;6.614;2023-01-20T10:17:30;4.80;99.90
5278;DHT22;2662;51.194;6.614;2023-01-20T10:20:04;4.70;99.90
5278;DHT22;2662;51.194;6.614;2023-01-20T10:22:37;4.60;99.90
5278;DHT22;2662;51.194;6.614;2023-01-20T10:25:08;4.60;99.90
5278;DHT22;2662;51.194;6.614;2023-01-20T10:27:44;4.60;99.90
5278;DHT22;2662;51.194;6.614;2023-01-20T10:30:13;4.60;99.90
5278;DHT22;2662;51.194;6.614;2023-01-20T10:32:46;4.60;99.90
5278;DHT22;2662;51.194;6.614;2023-01-20T10:35:18;4.70;99.90
5278;DHT22;2662;51.194;6.614;2023-01-20T10:37:45;4.70;99.90
5278;DHT22;2662;51.194;6.614;2023-01-20T10:40:17;4.70;99.90
5278;DHT22;2662;51.194;6.614;2023-01-20T10:42:47;4.70;99.90
5278;DHT22;2662;51.194;6.614;2023-01-20T10:45:19;4.80;99.90
5278;DHT22;2662;51.194;6.614;2023-01-20T10:47:53;4.80;99.90
5278;DHT22;2662;51.194;6.614;2023-01-20T10:50:40;4.90;99.90
5278;DHT22;2662;51.194;6.614;2023-01-20T10:53:34;5.00;99.90
5278;DHT22;2662;51.194;6.614;2023-01-20T10:56:14;5.00;99.90
5278;DHT22;2662;51.194;6.614;2023-01-20T10:58:44;5.00;99.90
5278;DHT22;2662;51.194;6.614;2023-01-20T11:01:14;4.90;99.90
5278;DHT22;2662;51.194;6.614;2023-01-20T11:03:44;4.90;99.90
5278;DHT22;2662;51.194;6.614;2023-01-20T11:06:17;4.90;99.90
5278;DHT22;2662;51.194;6.614;2023-01-20T11:08:44;4.80;99.90
5278;DHT22;2662;51.194;6.614;2023-01-20T11:11:14;4.80;99.90
5278;DHT22;2662;51.194;6.614;2023-01-20T11:13:41;4.70;99.90
5278;DHT22;2662;51.194;6.614;2023-01-20T11:16:11;4.70;99.90
5278;DHT22;2662;51.194;6.614;2023-01-20T11:18:39;4.70;99.90
5278;DHT22;2662;51.194;6.614;2023-01-20T11:21:07;4.70;99.90
5278;DHT22;2662;51.194;6.614;2023-01-20T11:23:38;4.80;99.90
5278;DHT22;2662;51.194;6.614;2023-01-20T11:26:07;4.80;99.90
5278;DHT22;2662;51.194;6.614;2023-01-20T11:28:46;4.80;99.90
5278;DHT22;2662;51.194;6.614;2023-01-20T11:31:14;4.70;99.90
5278;DHT22;2662;51.194;6.614;2023-01-20T11:33:54;4.60;99.90
5278;DHT22;2662;51.194;6.614;2023-01-20T11:36:21;4.60;99.90
5278;DHT22;2662;51.194;6.614;2023-01-20T11:38:52;4.70;99.90
5278;DHT22;2662;51.194;6.614;2023-01-20T11:41:21;4.70;99.90
5278;DHT22;2662;51.194;6.614;2023-01-20T11:43:49;4.70;99.90
5278;DHT22;2662;51.194;6.614;2023-01-20T11:46:26;4.70;99.90
5278;DHT22;2662;51.194;6.614;2023-01-20T11:49:12;4.70;99.90
5278;DHT22;2662;51.194;6.614;2023-01-20T11:51:45;4.70;99.90
5278;DHT22;2662;51.194;6.614;2023-01-20T11:54:16;4.70;99.90
5278;DHT22;2662;51.194;6.614;2023-01-20T11:56:44;4.70;99.90
5278;DHT22;2662;51.194;6.614;2023-01-20T11:59:19;4.70;99.90
5278;DHT22;2662;51.194;6.614;2023-01-20T12:01:53;4.70;99.90
5278;DHT22;2662;51.194;6.614;2023-01-20T12:04:43;4.70;99.90
5278;DHT22;2662;51.194;6.614;2023-01-20T12:07:18;4.70;99.90
5278;DHT22;2662;51.194;6.614;2023-01-20T12:09:52;4.60;99.90
5278;DHT22;2662;51.194;6.614;2023-01-20T12:12:26;4.50;99.90
5278;DHT22;2662;51.194;6.614;2023-01-20T12:14:59;4.40;99.90
5278;DHT22;2662;51.194;6.614;2023-01-20T12:17:40;4.30;99.90
5278;DHT22;2662;51.194;6.614;2023-01-20T12:20:15;4.30;99.90
5278;DHT22;2662;51.194;6.614;2023-01-20T12:22:49;4.30;99.90
5278;DHT22;2662;51.194;6.614;2023-01-20T12:25:22;4.30;99.90
5278;DHT22;2662;51.194;6.614;2023-01-20T12:27:52;4.30;99.90
5278;DHT22;2662;51.194;6.614;2023-01-20T12:30:40;4.30;99.90
5278;DHT22;2662;51.194;6.614;2023-01-20T12:33:23;4.20;99.90
5278;DHT22;2662;51.194;6.614;2023-01-20T12:39:32;4.00;99.90
5278;DHT22;2662;51.194;6.614;2023-01-20T12:42:33;3.90;99.90
5278;DHT22;2662;51.194;6.614;2023-01-20T12:45:10;3.80;99.90
5278;DHT22;2662;51.194;6.614;2023-01-20T12:47:48;3.70;99.90
5278;DHT22;2662;51.194;6.614;2023-01-20T12:50:26;3.70;99.90
5278;DHT22;2662;51.194;6.614;2023-01-20T12:53:17;3.70;99.90
5278;DHT22;2662;51.194;6.614;2023-01-20T12:55:54;3.70;99.90
5278;DHT22;2662;51.194;6.614;2023-01-20T12:58:35;3.60;99.90
5278;DHT22;2662;51.194;6.614;2023-01-20T13:04:39;3.50;99.90
5278;DHT22;2662;51.194;6.614;2023-01-20T13:07:17;3.50;99.90
5278;DHT22;2662;51.194;6.614;2023-01-20T13:10:13;3.40;99.90
5278;DHT22;2662;51.194;6.614;2023-01-20T13:12:47;3.30;99.90
5278;DHT22;2662;51.194;6.614;2023-01-20T13:15:21;3.40;99.90
5278;DHT22;2662;51.194;6.614;2023-01-20T13:18:12;3.40;99.90
5278;DHT22;2662;51.194;6.614;2023-01-20T13:20:44;3.30;99.90
5278;DHT22;2662;51.194;6.614;2023-01-20T13:23:13;3.30;99.90
5278;DHT22;2662;51.194;6.614;2023-01-20T13:25:41;3.30;99.90
5278;DHT22;2662;51.194;6.614;2023-01-20T13:28:15;3.30;99.90
5278;DHT22;2662;51.194;6.614;2023-01-20T13:30:44;3.30;99.90
5278;DHT22;2662;51.194;6.614;2023-01-20T13:33:30;3.40;99.90
5278;DHT22;2662;51.194;6.614;2023-01-20T13:35:57;3.40;99.90
5278;DHT22;2662;51.194;6.614;2023-01-20T13:38:26;3.40;99.90
5278;DHT22;2662;51.194;6.614;2023-01-20T13:40:56;3.40;99.90
5278;DHT22;2662;51.194;6.614;2023-01-20T13:43:48;3.40;99.90
5278;DHT22;2662;51.194;6.614;2023-01-20T13:49:28;3.40;99.90
5278;DHT22;2662;51.194;6.614;2023-01-20T13:52:09;3.30;99.90
5278;DHT22;2662;51.194;6.614;2023-01-20T13:54:44;3.30;99.90
5278;DHT22;2662;51.194;6.614;2023-01-20T13:57:34;3.30;99.90
5278;DHT22;2662;51.194;6.614;2023-01-20T14:00:10;3.30;99.90
5278;DHT22;2662;51.194;6.614;2023-01-20T14:02:37;3.30;99.90
5278;DHT22;2662;51.194;6.614;2023-01-20T14:05:19;3.30;99.90
5278;DHT22;2662;51.194;6.614;2023-01-20T14:07:45;3.30;99.90
5278;DHT22;2662;51.194;6.614;2023-01-20T14:10:12;3.30;99.90
5278;DHT22;2662;51.194;6.614;2023-01-20T14:12:39;3.30;99.90
5278;DHT22;2662;51.194;6.614;2023-01-20T14:15:20;3.30;99.90
5278;DHT22;2662;51.194;6.614;2023-01-20T14:17:52;3.30;99.90
5278;DHT22;2662;51.194;6.614;2023-01-20T14:20:22;3.40;99.90
5278;DHT22;2662;51.194;6.614;2023-01-20T14:22:49;3.40;99.90
5278;DHT22;2662;51.194;6.614;2023-01-20T14:25:20;3.40;99.90
5278;DHT22;2662;51.194;6.614;2023-01-20T14:27:47;3.30;99.90
5278;DHT22;2662;51.194;6.614;2023-01-20T14:30:15;3.30;99.90
5278;DHT22;2662;51.194;6.614;2023-01-20T14:32:45;3.40;99.90
5278;DHT22;2662;51.194;6.614;2023-01-20T14:35:13;3.40;99.90
5278;DHT22;2662;51.194;6.614;2023-01-20T14:37:42;3.40;99.90
5278;DHT22;2662;51.194;6.614;2023-01-20T14:40:20;3.50;99.90
5278;DHT22;2662;51.194;6.614;2023-01-20T14:42:55;3.50;99.90
5278;DHT22;2662;51.194;6.614;2023-01-20T14:45:23;3.60;99.90
5278;DHT22;2662;51.194;6.614;2023-01-20T14:47:51;3.50;99.90
5278;DHT22;2662;51.194;6.614;2023-01-20T14:50:18;3.50;99.90
5278;DHT22;2662;51.194;6.614;2023-01-20T14:52:46;3.50;99.90
5278;DHT22;2662;51.194;6.614;2023-01-20T14:55:27;3.50;99.90
5278;DHT22;2662;51.194;6.614;2023-01-20T14:57:54;3.40;99.90
5278;DHT22;2662;51.194;6.614;2023-01-20T15:00:23;3.40;99.90
5278;DHT22;2662;51.194;6.614;2023-01-20T15:02:52;3.40;99.90
5278;DHT22;2662;51.194;6.614;2023-01-20T15:05:25;3.30;99.90
5278;DHT22;2662;51.194;6.614;2023-01-20T15:08:18;3.30;99.90
5278;DHT22;2662;51.194;6.614;2023-01-20T15:10:47;3.40;99.90
5278;DHT22;2662;51.194;6.614;2023-01-20T15:13:33;3.30;99.90
5278;DHT22;2662;51.194;6.614;2023-01-20T15:16:11;3.40;99.90
5278;DHT22;2662;51.194;6.614;2023-01-20T15:18:41;3.40;99.90
5278;DHT22;2662;51.194;6.614;2023-01-20T15:21:18;3.40;99.90
5278;DHT22;2662;51.194;6.614;2023-01-20T15:23:48;3.40;99.90
5278;DHT22;2662;51.194;6.614;2023-01-20T15:26:24;3.30;99.90
5278;DHT22;2662;51.194;6.614;2023-01-20T15:28:51;3.40;99.90
5278;DHT22;2662;51.194;6.614;2023-01-20T15:31:18;3.40;99.90
5278;DHT22;2662;51.194;6.614;2023-01-20T15:33:45;3.50;99.90
5278;DHT22;2662;51.194;6.614;2023-01-20T15:36:22;3.50;99.90
5278;DHT22;2662;51.194;6.614;2023-01-20T15:38:53;3.50;99.90
5278;DHT22;2662;51.194;6.614;2023-01-20T15:41:20;3.50;99.90
5278;DHT22;2662;51.194;6.614;2023-01-20T15:43:47;3.60;99.90
5278;DHT22;2662;51.194;6.614;2023-01-20T15:46:17;3.50;99.90
5278;DHT22;2662;51.194;6.614;2023-01-20T15:48:44;3.40;99.90
5278;DHT22;2662;51.194;6.614;2023-01-20T15:51:13;3.40;99.90
5278;DHT22;2662;51.194;6.614;2023-01-20T15:53:40;3.40;99.90
5278;DHT22;2662;51.194;6.614;2023-01-20T15:56:14;3.30;99.90
5278;DHT22;2662;51.194;6.614;2023-01-20T15:58:42;3.30;99.90
5278;DHT22;2662;51.194;6.614;2023-01-20T16:01:11;3.30;99.90
5278;DHT22;2662;51.194;6.614;2023-01-20T16:03:39;3.20;99.90
5278;DHT22;2662;51.194;6.614;2023-01-20T16:06:10;3.10;99.90
5278;DHT22;2662;51.194;6.614;2023-01-20T16:08:37;3.10;99.90
5278;DHT22;2662;51.194;6.614;2023-01-20T16:11:04;3.10;99.90
5278;DHT22;2662;51.194;6.614;2023-01-20T16:13:33;3.10;99.90
5278;DHT22;2662;51.194;6.614;2023-01-20T16:16:01;3.10;99.90
5278;DHT22;2662;51.194;6.614;2023-01-20T16:18:28;3.10;99.90
5278;DHT22;2662;51.194;6.614;2023-01-20T16:20:55;3.10;99.90
5278;DHT22;2662;51.194;6.614;2023-01-20T16:23:22;3.20;99.90
5278;DHT22;2662;51.194;6.614;2023-01-20T16:25:49;3.20;99.90
5278;DHT22;2662;51.194;6.614;2023-01-20T16:28:16;3.10;99.90
5278;DHT22;2662;51.194;6.614;2023-01-20T16:30:47;3.20;99.90
5278;DHT22;2662;51.194;6.614;2023-01-20T16:33:15;3.20;99.90
5278;DHT22;2662;51.194;6.614;2023-01-20T16:35:42;3.20;99.90
5278;DHT22;2662;51.194;6.614;2023-01-20T16:38:12;3.20;99.90
5278;DHT22;2662;51.194;6.614;2023-01-20T16:40:44;3.20;99.90
5278;DHT22;2662;51.194;6.614;2023-01-20T16:43:11;3.10;99.90
5278;DHT22;2662;51.194;6.614;2023-01-20T16:45:38;3.10;99.90
5278;DHT22;2662;51.194;6.614;2023-01-20T16:48:06;3.10;99.90